Time;durP1;ratioP1;P1;durP2;ratioP2;P2;SDS_P1;SDS_P2;PMS_P1;PMS_P2;Temp;Humidity;BMP_temperature;BMP_pressure;BME280_temperature;BME280_humidity;BME280_pressure;Samples;Min_cycle;Max_cycle;Signal;HPM_P1;HPM_P2
2023/12/25 00:00:46;;;;;;;;;;;21.90;35.50;;;;;;5073455;28;19924;-58
2023/12/25 00:03:13;;;;;;;;;;;21.90;35.50;;;;;;5073216;28;19925;-58
2023/12/25 00:05:40;;;;;;;;;;;21.90;35.60;;;;;;5072938;28;19979;-58
2023/12/25 00:08:07;;;;;;;;;;;21.90;35.50;;;;;;5072882;28;19932;-58
2023/12/25 00:10:34;;;;;;;;;;;21.90;35.50;;;;;;5073377;28;19929;-58
2023/12/25 00:13:01;;;;;;;;;;;21.90;35.60;;;;;;5073017;28;19925;-58
2023/12/25 00:15:28;;;;;;;;;;;21.90;35.60;;;;;;5072931;28;20396;-58
2023/12/25 00:17:55;;;;;;;;;;;21.90;35.60;;;;;;5072574;28;19924;-58
2023/12/25 00:20:22;;;;;;;;;;;21.90;35.60;;;;;;5073024;28;19925;-58
2023/12/25 00:22:49;;;;;;;;;;;21.80;35.50;;;;;;5072908;28;19985;-58
2023/12/25 00:25:16;;;;;;;;;;;21.90;35.60;;;;;;5072783;28;19935;-58
2023/12/25 00:27:43;;;;;;;;;;;21.90;35.60;;;;;;5072572;28;19977;-58
2023/12/25 00:30:10;;;;;;;;;;;21.90;35.60;;;;;;5073418;28;19967;-57
2023/12/25 00:32:38;;;;;;;;;;;21.90;35.60;;;;;;5072721;28;19928;-58
2023/12/25 00:35:05;;;;;;;;;;;21.90;35.60;;;;;;5072451;28;20293;-58
2023/12/25 00:37:32;;;;;;;;;;;21.90;35.60;;;;;;5072974;28;19925;-58
2023/12/25 00:39:59;;;;;;;;;;;21.80;35.60;;;;;;5073025;28;19929;-58
2023/12/25 00:42:25;;;;;;;;;;;21.80;35.70;;;;;;5072726;28;19972;-59
2023/12/25 00:44:52;;;;;;;;;;;21.80;35.70;;;;;;5072912;28;19971;-58
2023/12/25 00:47:19;;;;;;;;;;;21.80;35.60;;;;;;5072620;28;19931;-58
2023/12/25 00:49:46;;;;;;;;;;;21.90;35.70;;;;;;5073048;28;19925;-58
2023/12/25 00:52:17;;;;;;;;;;;21.90;35.70;;;;;;5072896;28;19931;-58
2023/12/25 00:54:43;;;;;;;;;;;21.90;35.70;;;;;;5072484;28;19929;-58
2023/12/25 00:57:10;;;;;;;;;;;21.90;35.70;;;;;;5072617;28;20354;-58
2023/12/25 00:59:38;;;;;;;;;;;21.90;35.70;;;;;;5055091;28;20016;-58
2023/12/25 01:02:04;;;;;;;;;;;21.90;35.70;;;;;;5072941;28;19935;-58
2023/12/25 01:04:31;;;;;;;;;;;21.90;35.70;;;;;;5076253;28;19979;-58
2023/12/25 01:06:59;;;;;;;;;;;21.80;35.60;;;;;;5075861;28;19931;-59
2023/12/25 01:09:25;;;;;;;;;;;21.80;36.20;;;;;;5076495;28;20298;-58
2023/12/25 01:11:52;;;;;;;;;;;21.80;35.70;;;;;;5076440;28;19983;-58
2023/12/25 01:14:19;;;;;;;;;;;21.80;35.70;;;;;;5075968;28;19970;-58
2023/12/25 01:16:46;;;;;;;;;;;21.80;35.70;;;;;;5076218;28;19931;-58
2023/12/25 01:19:13;;;;;;;;;;;21.80;35.70;;;;;;5058141;28;19982;-58
2023/12/25 01:21:40;;;;;;;;;;;21.80;35.70;;;;;;5075817;28;19959;-58
2023/12/25 01:24:08;;;;;;;;;;;21.80;35.70;;;;;;5058381;28;19970;-57
2023/12/25 01:26:34;;;;;;;;;;;21.80;35.70;;;;;;5075894;28;20019;-58
2023/12/25 01:29:01;;;;;;;;;;;21.80;35.70;;;;;;5075808;28;19932;-59
2023/12/25 01:31:28;;;;;;;;;;;21.80;35.70;;;;;;5075693;28;19932;-58
2023/12/25 01:33:55;;;;;;;;;;;21.80;35.70;;;;;;5075649;28;19978;-58
2023/12/25 01:36:22;;;;;;;;;;;21.80;35.70;;;;;;5075531;28;20393;-57
2023/12/25 01:38:49;;;;;;;;;;;21.80;35.70;;;;;;5076030;28;19972;-57
2023/12/25 01:41:16;;;;;;;;;;;21.80;35.70;;;;;;5075704;28;19928;-58
2023/12/25 01:43:45;;;;;;;;;;;21.80;35.70;;;;;;5075482;28;20285;-58
2023/12/25 01:46:13;;;;;;;;;;;21.80;35.70;;;;;;5075857;28;19924;-58
2023/12/25 01:48:41;;;;;;;;;;;21.80;35.70;;;;;;5076020;28;20427;-58
2023/12/25 01:51:08;;;;;;;;;;;21.80;35.80;;;;;;5075270;28;19932;-58
2023/12/25 01:53:35;;;;;;;;;;;21.80;35.80;;;;;;5075251;28;19924;-58
2023/12/25 01:56:02;;;;;;;;;;;21.80;35.70;;;;;;5075299;28;19924;-58
2023/12/25 01:58:29;;;;;;;;;;;21.80;35.70;;;;;;5075256;28;19978;-58
2023/12/25 02:00:56;;;;;;;;;;;21.80;35.70;;;;;;5075501;28;19925;-58
2023/12/25 02:03:23;;;;;;;;;;;21.80;35.70;;;;;;5075368;28;20023;-58
2023/12/25 02:05:50;;;;;;;;;;;21.80;35.70;;;;;;5075241;28;19978;-57
2023/12/25 02:08:17;;;;;;;;;;;21.80;35.70;;;;;;5075371;28;20024;-57
2023/12/25 02:10:44;;;;;;;;;;;21.80;35.70;;;;;;5075118;28;19924;-58
2023/12/25 02:13:11;;;;;;;;;;;21.80;35.70;;;;;;5074552;28;19977;-58
2023/12/25 02:15:39;;;;;;;;;;;21.80;35.70;;;;;;5074064;28;19924;-58
2023/12/25 02:18:07;;;;;;;;;;;21.80;35.70;;;;;;5074701;28;19925;-58
2023/12/25 02:20:34;;;;;;;;;;;21.80;35.70;;;;;;5075196;28;19931;-57
2023/12/25 02:23:04;;;;;;;;;;;21.80;35.70;;;;;;5075103;28;19924;-58
2023/12/25 02:25:32;;;;;;;;;;;21.80;35.70;;;;;;5074466;28;20382;-58
2023/12/25 02:28:00;;;;;;;;;;;21.80;35.70;;;;;;5074858;28;19967;-58
2023/12/25 02:30:28;;;;;;;;;;;21.80;35.70;;;;;;5074576;28;19924;-58
2023/12/25 02:32:55;;;;;;;;;;;21.80;35.70;;;;;;5074324;28;19929;-58
2023/12/25 02:35:22;;;;;;;;;;;21.80;35.70;;;;;;5074442;28;19924;-58
2023/12/25 02:37:49;;;;;;;;;;;21.80;35.70;;;;;;5074734;28;19931;-58
2023/12/25 02:40:16;;;;;;;;;;;21.80;35.70;;;;;;5074372;28;20424;-58
2023/12/25 02:42:43;;;;;;;;;;;21.80;35.70;;;;;;5074759;28;19929;-58
2023/12/25 02:45:10;;;;;;;;;;;21.80;35.70;;;;;;5074807;28;19924;-58
2023/12/25 02:47:37;;;;;;;;;;;21.80;35.70;;;;;;5073959;28;19924;-58
2023/12/25 02:50:04;;;;;;;;;;;21.80;35.70;;;;;;5073166;28;20007;-58
2023/12/25 02:52:31;;;;;;;;;;;21.80;35.70;;;;;;5074514;28;19925;-58
2023/12/25 02:54:58;;;;;;;;;;;21.80;35.80;;;;;;5074086;28;20294;-58
2023/12/25 02:57:25;;;;;;;;;;;21.80;35.80;;;;;;5073959;28;19928;-58
2023/12/25 02:59:52;;;;;;;;;;;21.80;35.80;;;;;;5074432;28;19968;-58
2023/12/25 03:02:19;;;;;;;;;;;21.80;35.80;;;;;;5073976;28;19924;-58
2023/12/25 03:04:46;;;;;;;;;;;21.80;35.80;;;;;;5073798;28;20396;-58
2023/12/25 03:07:13;;;;;;;;;;;21.80;35.70;;;;;;5073996;28;20440;-58
2023/12/25 03:09:40;;;;;;;;;;;21.90;35.80;;;;;;5074236;28;19966;-58
2023/12/25 03:12:07;;;;;;;;;;;21.90;35.80;;;;;;5074052;28;19924;-58
2023/12/25 03:14:34;;;;;;;;;;;21.80;35.70;;;;;;5073916;28;20375;-58
2023/12/25 03:17:01;;;;;;;;;;;21.80;35.70;;;;;;5073474;28;20298;-57
2023/12/25 03:19:27;;;;;;;;;;;21.80;35.70;;;;;;5074380;28;19964;-57
2023/12/25 03:21:54;;;;;;;;;;;21.90;35.80;;;;;;5073797;28;19982;-58
2023/12/25 03:24:21;;;;;;;;;;;21.80;35.70;;;;;;5073761;28;19924;-59
2023/12/25 03:26:49;;;;;;;;;;;21.80;35.70;;;;;;5073305;28;19928;-58
2023/12/25 03:29:16;;;;;;;;;;;21.90;35.80;;;;;;5073495;28;19932;-58
2023/12/25 03:31:44;;;;;;;;;;;21.80;35.70;;;;;;5073489;28;20340;-58
2023/12/25 03:34:15;;;;;;;;;;;21.80;35.70;;;;;;5073759;28;19925;-58
2023/12/25 03:36:42;;;;;;;;;;;21.80;35.70;;;;;;5073647;28;19925;-57
2023/12/25 03:39:09;;;;;;;;;;;21.80;35.70;;;;;;5073414;28;19925;-58
2023/12/25 03:41:36;;;;;;;;;;;21.80;35.70;;;;;;5073477;28;20392;-58
2023/12/25 03:44:03;;;;;;;;;;;21.80;35.70;;;;;;5073180;28;19931;-58
2023/12/25 03:46:30;;;;;;;;;;;21.80;35.70;;;;;;5073625;28;19928;-58
2023/12/25 03:48:56;;;;;;;;;;;21.80;35.80;;;;;;5073218;28;19970;-57
2023/12/25 03:51:24;;;;;;;;;;;21.80;35.80;;;;;;5062933;28;19925;-58
2023/12/25 03:53:51;;;;;;;;;;;21.80;35.80;;;;;;5073333;28;19928;-58
2023/12/25 03:56:18;;;;;;;;;;;21.80;35.80;;;;;;5073120;28;20432;-57
2023/12/25 03:58:45;;;;;;;;;;;21.80;35.80;;;;;;5073544;28;19924;-58
2023/12/25 04:01:12;;;;;;;;;;;21.80;35.90;;;;;;5073536;28;19928;-58
2023/12/25 04:03:39;;;;;;;;;;;21.80;35.90;;;;;;5073012;28;20143;-58
2023/12/25 04:06:06;;;;;;;;;;;21.80;35.90;;;;;;5072310;28;20300;-55
2023/12/25 04:08:33;;;;;;;;;;;21.80;35.90;;;;;;5073098;28;19928;-59
2023/12/25 04:11:00;;;;;;;;;;;21.80;35.90;;;;;;5073178;28;19924;-58
2023/12/25 04:13:27;;;;;;;;;;;21.80;35.90;;;;;;5073424;28;19932;-58
2023/12/25 04:15:54;;;;;;;;;;;21.80;35.90;;;;;;5073015;28;20015;-58
2023/12/25 04:18:21;;;;;;;;;;;21.80;35.90;;;;;;5073259;28;19925;-58
2023/12/25 04:20:48;;;;;;;;;;;21.90;35.90;;;;;;5073365;28;20293;-57
2023/12/25 04:23:15;;;;;;;;;;;21.80;36.40;;;;;;5072843;28;19932;-58
2023/12/25 04:25:42;;;;;;;;;;;21.90;35.90;;;;;;5072790;28;19924;-58
2023/12/25 04:28:09;;;;;;;;;;;21.80;35.80;;;;;;5072911;28;19925;-58
2023/12/25 04:30:36;;;;;;;;;;;21.80;35.80;;;;;;5071897;28;19928;-58
2023/12/25 04:33:03;;;;;;;;;;;21.90;35.90;;;;;;5072583;28;19924;-58
2023/12/25 04:35:30;;;;;;;;;;;21.80;35.80;;;;;;5072862;28;19932;-57
2023/12/25 04:37:57;;;;;;;;;;;21.90;35.90;;;;;;5074805;28;19938;-57
2023/12/25 04:40:24;;;;;;;;;;;21.80;35.90;;;;;;5076746;28;19978;-57
2023/12/25 04:42:51;;;;;;;;;;;21.80;35.90;;;;;;5076884;28;19967;-58
2023/12/25 04:45:18;;;;;;;;;;;21.90;36.00;;;;;;5076455;28;20377;-57
2023/12/25 04:47:45;;;;;;;;;;;21.90;35.90;;;;;;5076745;28;19924;-57
2023/12/25 04:50:12;;;;;;;;;;;21.90;35.90;;;;;;5076933;28;20318;-58
2023/12/25 04:52:39;;;;;;;;;;;21.90;35.90;;;;;;5076708;28;19924;-58
2023/12/25 04:55:06;;;;;;;;;;;21.90;36.00;;;;;;5076666;28;19928;-58
2023/12/25 04:57:33;;;;;;;;;;;21.90;36.00;;;;;;5076199;28;19925;-58
2023/12/25 05:00:00;;;;;;;;;;;21.90;36.00;;;;;;5076383;28;19994;-58
2023/12/25 05:02:27;;;;;;;;;;;21.90;36.00;;;;;;5076130;28;20012;-58
2023/12/25 05:04:54;;;;;;;;;;;21.90;36.00;;;;;;5076228;28;19924;-58
2023/12/25 05:07:21;;;;;;;;;;;21.90;36.00;;;;;;5075800;28;19931;-58
2023/12/25 05:09:48;;;;;;;;;;;22.00;36.10;;;;;;5076491;28;19931;-58
2023/12/25 05:12:17;;;;;;;;;;;22.00;36.10;;;;;;5076042;28;19971;-58
2023/12/25 05:14:46;;;;;;;;;;;22.00;36.10;;;;;;5076089;28;20003;-58
2023/12/25 05:17:13;;;;;;;;;;;22.00;36.10;;;;;;5075934;28;20309;-58
2023/12/25 05:19:41;;;;;;;;;;;22.00;36.10;;;;;;5076219;28;19998;-58
2023/12/25 05:22:08;;;;;;;;;;;22.00;36.10;;;;;;5076084;28;19925;-57
2023/12/25 05:24:35;;;;;;;;;;;22.00;36.10;;;;;;5075805;28;19931;-58
2023/12/25 05:27:02;;;;;;;;;;;22.10;36.20;;;;;;5075806;28;20436;-56
2023/12/25 05:29:29;;;;;;;;;;;22.10;36.20;;;;;;5076031;28;19924;-57
2023/12/25 05:31:57;;;;;;;;;;;22.10;36.20;;;;;;5075585;28;20020;-58
2023/12/25 05:34:24;;;;;;;;;;;22.10;36.20;;;;;;5076112;28;19924;-58
2023/12/25 05:36:51;;;;;;;;;;;22.10;36.20;;;;;;5075812;28;19924;-58
2023/12/25 05:39:18;;;;;;;;;;;22.10;36.20;;;;;;5075720;28;19975;-58
2023/12/25 05:41:46;;;;;;;;;;;22.10;36.20;;;;;;5075474;28;19925;-58
2023/12/25 05:44:13;;;;;;;;;;;22.10;36.30;;;;;;5075461;28;19925;-58
2023/12/25 05:46:40;;;;;;;;;;;22.20;36.30;;;;;;5075539;28;20389;-58
2023/12/25 05:49:06;;;;;;;;;;;22.10;36.30;;;;;;5075255;28;20385;-58
2023/12/25 05:51:34;;;;;;;;;;;22.10;36.30;;;;;;5074986;28;19932;-58
2023/12/25 05:54:01;;;;;;;;;;;22.20;36.40;;;;;;5075651;28;19947;-58
2023/12/25 05:56:28;;;;;;;;;;;22.20;36.40;;;;;;5075168;28;19928;-56
2023/12/25 05:58:55;;;;;;;;;;;22.20;36.40;;;;;;5075160;28;20011;-55
2023/12/25 06:01:22;;;;;;;;;;;22.20;36.40;;;;;;5075670;28;20325;-58
2023/12/25 06:03:49;;;;;;;;;;;22.20;36.40;;;;;;5075053;28;20408;-59
2023/12/25 06:06:17;;;;;;;;;;;22.20;36.40;;;;;;5075197;28;19931;-58
2023/12/25 06:08:44;;;;;;;;;;;22.30;36.50;;;;;;5075125;28;19964;-58
2023/12/25 06:11:13;;;;;;;;;;;22.30;36.50;;;;;;5075282;28;20324;-58
2023/12/25 06:13:39;;;;;;;;;;;22.30;36.50;;;;;;5074998;28;19924;-58
2023/12/25 06:16:06;;;;;;;;;;;22.20;36.40;;;;;;5075180;28;19928;-57
2023/12/25 06:18:33;;;;;;;;;;;22.30;36.50;;;;;;5074759;28;19975;-57
2023/12/25 06:21:00;;;;;;;;;;;22.30;36.50;;;;;;5074927;28;20332;-58
2023/12/25 06:23:27;;;;;;;;;;;22.30;36.50;;;;;;5057162;28;19934;-58
2023/12/25 06:25:55;;;;;;;;;;;22.30;36.50;;;;;;5074909;28;19981;-58
2023/12/25 06:28:21;;;;;;;;;;;22.30;36.50;;;;;;5074994;28;19924;-57
2023/12/25 06:30:51;;;;;;;;;;;22.30;36.50;;;;;;5074996;28;19979;-58
2023/12/25 06:33:19;;;;;;;;;;;22.30;36.50;;;;;;5074379;28;19934;-58
2023/12/25 06:35:46;;;;;;;;;;;22.30;36.50;;;;;;5074558;28;19932;-58
2023/12/25 06:38:13;;;;;;;;;;;22.30;36.50;;;;;;5074718;28;20358;-58
2023/12/25 06:40:43;;;;;;;;;;;22.30;36.50;;;;;;5074444;28;20007;-58
2023/12/25 06:43:10;;;;;;;;;;;22.40;36.50;;;;;;5057012;28;20015;-58
2023/12/25 06:45:37;;;;;;;;;;;22.40;36.50;;;;;;5074189;28;19974;-57
2023/12/25 06:48:04;;;;;;;;;;;22.40;36.50;;;;;;5073589;28;19930;-58
2023/12/25 06:50:32;;;;;;;;;;;22.40;36.50;;;;;;5074441;28;20374;-57
2023/12/25 06:52:59;;;;;;;;;;;22.40;36.50;;;;;;5074404;28;19971;-58
2023/12/25 06:55:26;;;;;;;;;;;22.40;36.50;;;;;;5074497;28;19931;-57
2023/12/25 06:57:53;;;;;;;;;;;22.40;36.40;;;;;;5074057;28;20285;-56
2023/12/25 07:00:20;;;;;;;;;;;22.50;36.50;;;;;;5074032;28;19986;-57
2023/12/25 07:02:48;;;;;;;;;;;22.50;36.50;;;;;;5073723;28;20402;-57
2023/12/25 07:05:15;;;;;;;;;;;22.50;36.50;;;;;;5073890;28;19925;-57
2023/12/25 07:07:45;;;;;;;;;;;22.50;36.50;;;;;;5074225;28;20026;-58
2023/12/25 07:10:12;;;;;;;;;;;22.50;36.50;;;;;;5074189;28;19924;-57
2023/12/25 07:12:39;;;;;;;;;;;22.50;36.50;;;;;;5074156;28;19928;-58
2023/12/25 07:15:06;;;;;;;;;;;22.50;36.50;;;;;;5074364;28;20279;-58
2023/12/25 07:17:33;;;;;;;;;;;22.50;36.40;;;;;;5073611;28;19924;-57
2023/12/25 07:20:01;;;;;;;;;;;22.60;36.50;;;;;;5074004;28;19925;-58
2023/12/25 07:22:29;;;;;;;;;;;22.60;36.50;;;;;;5073415;28;19958;-58
2023/12/25 07:24:56;;;;;;;;;;;22.60;36.40;;;;;;5073577;28;20398;-57
2023/12/25 07:27:23;;;;;;;;;;;22.60;36.40;;;;;;5073101;28;19935;-58
2023/12/25 07:29:49;;;;;;;;;;;22.60;36.40;;;;;;5073566;28;19931;-57
2023/12/25 07:32:16;;;;;;;;;;;22.60;36.40;;;;;;5056139;28;19928;-58
2023/12/25 07:34:43;;;;;;;;;;;22.60;36.40;;;;;;5073536;28;19978;-56
2023/12/25 07:37:10;;;;;;;;;;;22.60;36.40;;;;;;5073074;28;19972;-57
2023/12/25 07:39:39;;;;;;;;;;;22.60;36.40;;;;;;5073641;28;19925;-57
2023/12/25 07:42:06;;;;;;;;;;;22.60;36.40;;;;;;5073353;28;19967;-57
2023/12/25 07:44:37;;;;;;;;;;;22.70;36.30;;;;;;5055642;28;20369;-57
2023/12/25 07:47:04;;;;;;;;;;;22.70;36.30;;;;;;5073037;28;19935;-59
2023/12/25 07:49:31;;;;;;;;;;;22.70;36.30;;;;;;5073791;28;19931;-57
2023/12/25 07:51:58;;;;;;;;;;;22.70;36.30;;;;;;5055437;28;19928;-59
2023/12/25 07:54:25;;;;;;;;;;;22.70;36.30;;;;;;5072702;28;19978;-58
2023/12/25 07:56:52;;;;;;;;;;;22.70;36.30;;;;;;5073009;28;19978;-58
2023/12/25 07:59:20;;;;;;;;;;;22.80;36.30;;;;;;5073093;28;19933;-58
2023/12/25 08:01:47;;;;;;;;;;;22.80;36.20;;;;;;5073609;28;19955;-56
2023/12/25 08:04:14;;;;;;;;;;;22.80;36.20;;;;;;5073131;28;19924;-57
2023/12/25 08:06:41;;;;;;;;;;;22.80;36.20;;;;;;5073272;28;19925;-58
2023/12/25 08:09:09;;;;;;;;;;;22.80;36.20;;;;;;5073336;28;19967;-57
2023/12/25 08:11:37;;;;;;;;;;;22.90;36.20;;;;;;5073150;28;19963;-57
2023/12/25 08:14:04;;;;;;;;;;;22.90;36.20;;;;;;5077187;28;19925;-58
2023/12/25 08:16:31;;;;;;;;;;;22.90;36.10;;;;;;5077147;28;20026;-58
2023/12/25 08:18:58;;;;;;;;;;;22.90;36.10;;;;;;5077138;28;19967;-57
2023/12/25 08:21:25;;;;;;;;;;;23.00;36.10;;;;;;5077262;28;20381;-57
2023/12/25 08:23:52;;;;;;;;;;;23.00;36.10;;;;;;5077302;28;19925;-58
2023/12/25 08:26:19;;;;;;;;;;;23.00;36.10;;;;;;5077332;28;19929;-56
2023/12/25 08:28:47;;;;;;;;;;;23.00;36.10;;;;;;5076801;28;19924;-58
2023/12/25 08:31:14;;;;;;;;;;;23.10;36.10;;;;;;5076982;28;19932;-58
2023/12/25 08:33:42;;;;;;;;;;;23.10;36.00;;;;;;5076531;28;20416;-58
2023/12/25 08:36:09;;;;;;;;;;;23.20;36.00;;;;;;5076963;28;20019;-57
2023/12/25 08:38:36;;;;;;;;;;;23.20;36.00;;;;;;5076683;28;19924;-56
2023/12/25 08:41:04;;;;;;;;;;;23.20;35.90;;;;;;5076717;28;20023;-58
2023/12/25 08:43:31;;;;;;;;;;;23.30;35.90;;;;;;5076707;28;19924;-57
2023/12/25 08:45:58;;;;;;;;;;;23.30;35.90;;;;;;5076881;28;19932;-58
2023/12/25 08:48:25;;;;;;;;;;;23.30;35.80;;;;;;5076396;28;19979;-58
2023/12/25 08:50:55;;;;;;;;;;;23.40;35.80;;;;;;5076673;28;19925;-57
2023/12/25 08:53:22;;;;;;;;;;;23.40;35.70;;;;;;5076159;28;19964;-56
2023/12/25 08:55:49;;;;;;;;;;;23.40;35.70;;;;;;5076556;28;19928;-57
2023/12/25 08:58:17;;;;;;;;;;;23.40;35.70;;;;;;5076405;28;20370;-58
2023/12/25 09:00:44;;;;;;;;;;;23.50;35.70;;;;;;5076328;28;19924;-57
2023/12/25 09:03:11;;;;;;;;;;;23.50;35.70;;;;;;5076524;28;19932;-58
2023/12/25 09:05:40;;;;;;;;;;;23.50;35.60;;;;;;5076323;28;20287;-58
2023/12/25 09:08:08;;;;;;;;;;;23.50;35.60;;;;;;5076297;28;19970;-58
2023/12/25 09:10:35;;;;;;;;;;;23.60;35.60;;;;;;5058217;28;19924;-58
2023/12/25 09:13:02;;;;;;;;;;;23.60;35.50;;;;;;5076127;28;19925;-58
2023/12/25 09:15:29;;;;;;;;;;;23.60;35.50;;;;;;5076493;28;20007;-58
2023/12/25 09:17:56;;;;;;;;;;;23.70;35.50;;;;;;5075696;28;20400;-58
2023/12/25 09:20:24;;;;;;;;;;;23.70;35.40;;;;;;5076467;28;19925;-58
2023/12/25 09:22:51;;;;;;;;;;;23.70;35.40;;;;;;5075744;28;19928;-58
2023/12/25 09:25:18;;;;;;;;;;;23.70;35.30;;;;;;5076166;28;20128;-59
2023/12/25 09:27:45;;;;;;;;;;;23.80;35.30;;;;;;5075684;28;19978;-58
2023/12/25 09:30:12;;;;;;;;;;;23.80;35.30;;;;;;5076194;28;20387;-58
2023/12/25 09:32:39;;;;;;;;;;;23.90;35.30;;;;;;5075740;28;19931;-57
2023/12/25 09:35:09;;;;;;;;;;;23.90;35.20;;;;;;5075757;28;19924;-57
2023/12/25 09:37:36;;;;;;;;;;;23.90;35.20;;;;;;5075785;28;19931;-57
2023/12/25 09:40:03;;;;;;;;;;;24.00;35.20;;;;;;5076031;28;19935;-58
2023/12/25 09:42:30;;;;;;;;;;;24.00;35.10;;;;;;5075519;28;20362;-58
2023/12/25 09:44:57;;;;;;;;;;;24.00;35.10;;;;;;5057865;28;19924;-58
2023/12/25 09:47:25;;;;;;;;;;;24.10;35.10;;;;;;5075308;28;19932;-58
2023/12/25 09:49:53;;;;;;;;;;;24.10;35.00;;;;;;5075808;28;20287;-58
2023/12/25 09:52:20;;;;;;;;;;;24.20;35.10;;;;;;5075612;28;20378;-58
2023/12/25 09:54:48;;;;;;;;;;;24.20;35.00;;;;;;5075862;28;19924;-61
2023/12/25 09:57:16;;;;;;;;;;;24.20;35.00;;;;;;5078765;28;19925;-62
2023/12/25 09:59:43;;;;;;;;;;;24.30;35.00;;;;;;5078278;28;19932;-62
2023/12/25 10:02:11;;;;;;;;;;;24.30;34.90;;;;;;5078968;28;19930;-61
2023/12/25 10:04:39;;;;;;;;;;;24.30;34.90;;;;;;5078553;28;19924;-63
2023/12/25 10:07:06;;;;;;;;;;;24.30;34.90;;;;;;5078190;28;19947;-62
2023/12/25 10:09:34;;;;;;;;;;;24.30;34.90;;;;;;5078504;28;19925;-62
2023/12/25 10:12:01;;;;;;;;;;;24.30;34.90;;;;;;5078903;28;19971;-62
2023/12/25 10:14:29;;;;;;;;;;;24.40;34.90;;;;;;5061056;28;20362;-62
2023/12/25 10:16:58;;;;;;;;;;;24.40;34.90;;;;;;5078029;28;19976;-62
2023/12/25 10:19:25;;;;;;;;;;;24.40;34.80;;;;;;5077938;28;19924;-62
2023/12/25 10:21:53;;;;;;;;;;;24.40;34.80;;;;;;5060544;28;20366;-62
2023/12/25 10:24:27;;;;;;;;;;;24.40;34.80;;;;;;5078559;28;19924;-62
2023/12/25 10:26:57;;;;;;;;;;;24.50;34.80;;;;;;5060827;28;19999;-62
2023/12/25 10:29:35;;;;;;;;;;;24.40;34.70;;;;;;5061013;28;19978;-62
2023/12/25 10:32:16;;;;;;;;;;;24.50;34.80;;;;;;5077910;28;20444;-62
2023/12/25 10:34:43;;;;;;;;;;;24.50;34.80;;;;;;5077112;28;19924;-62
2023/12/25 10:37:10;;;;;;;;;;;24.50;34.80;;;;;;5077499;28;19929;-62
2023/12/25 10:39:37;;;;;;;;;;;24.50;34.70;;;;;;5078006;28;19925;-62
2023/12/25 10:42:05;;;;;;;;;;;24.50;34.80;;;;;;5078056;28;20341;-62
2023/12/25 10:44:33;;;;;;;;;;;24.50;34.80;;;;;;5078111;28;19931;-62
2023/12/25 10:47:01;;;;;;;;;;;24.50;34.70;;;;;;5077541;28;19925;-62
2023/12/25 10:49:29;;;;;;;;;;;24.50;34.80;;;;;;5077663;28;19924;-63
2023/12/25 10:51:57;;;;;;;;;;;24.50;34.80;;;;;;5060128;28;20407;-63
2023/12/25 10:54:24;;;;;;;;;;;24.50;34.70;;;;;;5077659;28;19956;-63
2023/12/25 10:56:52;;;;;;;;;;;24.50;34.70;;;;;;5078003;28;20302;-63
2023/12/25 10:59:32;;;;;;;;;;;24.50;34.70;;;;;;5077569;28;20711;-63
2023/12/25 11:02:01;;;;;;;;;;;24.60;34.70;;;;;;5077867;28;20274;-63
2023/12/25 11:04:28;;;;;;;;;;;24.60;34.70;;;;;;5077769;28;20327;-63
2023/12/25 11:06:56;;;;;;;;;;;24.60;34.60;;;;;;5059075;28;20443;-63
2023/12/25 11:09:24;;;;;;;;;;;24.60;34.70;;;;;;5076518;28;19967;-63
2023/12/25 11:11:51;;;;;;;;;;;24.60;34.60;;;;;;5075450;28;19967;-63
2023/12/25 11:14:19;;;;;;;;;;;24.60;34.70;;;;;;5074683;28;19928;-63
2023/12/25 11:16:46;;;;;;;;;;;24.50;34.70;;;;;;5074732;28;19924;-63
2023/12/25 11:19:13;;;;;;;;;;;24.60;34.80;;;;;;5074594;28;19924;-63
2023/12/25 11:21:42;;;;;;;;;;;24.50;34.70;;;;;;5074466;28;19924;-63
2023/12/25 11:24:11;;;;;;;;;;;24.60;34.70;;;;;;5073754;28;20130;-63
2023/12/25 11:26:41;;;;;;;;;;;24.50;34.70;;;;;;5077358;28;19925;-63
2023/12/25 11:29:10;;;;;;;;;;;24.50;34.80;;;;;;5073428;28;19924;-59
2023/12/25 11:31:41;;;;;;;;;;;24.50;34.80;;;;;;5073775;28;20030;-58
2023/12/25 11:34:30;;;;;;;;;;;24.50;34.80;;;;;;5073441;28;19933;-58
2023/12/25 11:36:57;;;;;;;;;;;24.50;34.80;;;;;;5073581;28;19995;-59
2023/12/25 11:39:25;;;;;;;;;;;24.50;34.90;;;;;;5073672;28;20015;-59
2023/12/25 11:41:52;;;;;;;;;;;24.50;34.80;;;;;;5073605;28;19925;-58
2023/12/25 11:44:28;;;;;;;;;;;24.50;34.80;;;;;;5073276;28;19924;-58
2023/12/25 11:46:58;;;;;;;;;;;24.50;34.80;;;;;;5073735;28;20270;-58
2023/12/25 11:49:27;;;;;;;;;;;24.50;34.80;;;;;;5073031;28;19939;-58
2023/12/25 11:51:54;;;;;;;;;;;24.50;34.80;;;;;;5073839;28;19928;-56
2023/12/25 11:54:26;;;;;;;;;;;24.50;34.80;;;;;;5073584;28;19951;-56
2023/12/25 11:56:53;;;;;;;;;;;24.50;34.80;;;;;;5073686;28;20280;-56
2023/12/25 11:59:20;;;;;;;;;;;24.50;34.80;;;;;;5070955;28;19933;-57
2023/12/25 12:01:47;;;;;;;;;;;24.50;34.80;;;;;;5053648;28;19980;-56
2023/12/25 12:04:16;;;;;;;;;;;24.50;34.80;;;;;;5069305;28;19971;-56
2023/12/25 12:06:43;;;;;;;;;;;24.50;34.70;;;;;;5073218;28;20381;-57
2023/12/25 12:09:10;;;;;;;;;;;24.60;34.80;;;;;;5073126;28;20328;-56
2023/12/25 12:11:37;;;;;;;;;;;24.60;34.80;;;;;;5055631;28;20319;-57
2023/12/25 12:14:04;;;;;;;;;;;24.60;34.70;;;;;;5073631;28;19924;-56
2023/12/25 12:16:35;;;;;;;;;;;24.50;34.70;;;;;;5073090;28;19932;-56
2023/12/25 12:19:02;;;;;;;;;;;24.50;34.70;;;;;;5073002;28;20402;-56
2023/12/25 12:21:29;;;;;;;;;;;24.50;34.70;;;;;;5073234;28;19932;-57
2023/12/25 12:23:56;;;;;;;;;;;24.60;34.80;;;;;;5072675;28;19982;-58
2023/12/25 12:26:24;;;;;;;;;;;24.60;34.80;;;;;;5073094;28;19924;-57
2023/12/25 12:28:54;;;;;;;;;;;24.50;34.80;;;;;;5073108;28;19928;-57
2023/12/25 12:31:21;;;;;;;;;;;24.50;34.80;;;;;;5072911;28;19939;-57
2023/12/25 12:33:49;;;;;;;;;;;24.50;34.80;;;;;;5073346;28;19924;-59
2023/12/25 12:36:17;;;;;;;;;;;24.50;34.80;;;;;;5072905;28;20348;-57
2023/12/25 12:38:44;;;;;;;;;;;24.50;34.80;;;;;;5055422;28;19931;-58
2023/12/25 12:41:12;;;;;;;;;;;24.50;34.80;;;;;;5072624;28;19982;-57
2023/12/25 12:43:40;;;;;;;;;;;24.50;34.90;;;;;;5072973;28;19955;-57
2023/12/25 12:46:14;;;;;;;;;;;24.50;34.80;;;;;;5073115;28;19978;-57
2023/12/25 12:48:41;;;;;;;;;;;24.50;34.90;;;;;;5072712;28;19928;-57
2023/12/25 12:51:08;;;;;;;;;;;24.50;34.90;;;;;;5073025;28;19932;-57
2023/12/25 12:53:35;;;;;;;;;;;24.50;35.00;;;;;;5072938;28;19924;-57
2023/12/25 12:56:03;;;;;;;;;;;24.50;35.00;;;;;;5072594;28;19952;-57
2023/12/25 12:58:30;;;;;;;;;;;24.40;35.00;;;;;;5074054;28;20023;-57
2023/12/25 13:00:57;;;;;;;;;;;24.40;35.00;;;;;;5076782;28;20274;-58
2023/12/25 13:03:24;;;;;;;;;;;24.40;35.00;;;;;;5076278;28;19931;-57
2023/12/25 13:05:51;;;;;;;;;;;24.50;35.00;;;;;;5076210;28;19924;-58
2023/12/25 13:08:18;;;;;;;;;;;24.50;35.00;;;;;;5076328;28;19978;-57
2023/12/25 13:10:45;;;;;;;;;;;24.40;35.00;;;;;;5076349;28;19931;-58
2023/12/25 13:13:12;;;;;;;;;;;24.40;35.00;;;;;;5075855;28;19925;-58
2023/12/25 13:15:39;;;;;;;;;;;24.40;35.00;;;;;;5076386;28;19924;-57
2023/12/25 13:18:07;;;;;;;;;;;24.40;35.10;;;;;;5075936;28;20366;-57
2023/12/25 13:20:34;;;;;;;;;;;24.30;35.10;;;;;;5076138;28;19931;-57
2023/12/25 13:23:01;;;;;;;;;;;24.30;35.20;;;;;;5075808;28;20370;-57
2023/12/25 13:25:28;;;;;;;;;;;24.30;35.20;;;;;;5076430;28;19964;-58
2023/12/25 13:27:55;;;;;;;;;;;24.30;35.30;;;;;;5076063;28;19928;-57
2023/12/25 13:30:22;;;;;;;;;;;24.30;35.30;;;;;;5075744;28;20331;-57
2023/12/25 13:32:49;;;;;;;;;;;24.20;35.30;;;;;;5058655;28;19924;-57
2023/12/25 13:35:18;;;;;;;;;;;24.30;35.30;;;;;;5075930;28;19925;-57
2023/12/25 13:37:45;;;;;;;;;;;24.20;35.30;;;;;;5075531;28;19928;-57
2023/12/25 13:40:12;;;;;;;;;;;24.20;35.30;;;;;;5075758;28;19925;-57
2023/12/25 13:42:39;;;;;;;;;;;24.30;35.40;;;;;;5075736;28;19971;-57
2023/12/25 13:45:06;;;;;;;;;;;24.20;35.30;;;;;;5075820;28;19953;-57
2023/12/25 13:47:34;;;;;;;;;;;24.20;35.40;;;;;;5075469;28;20102;-58
2023/12/25 13:50:12;;;;;;;;;;;24.20;35.30;;;;;;5076046;28;19925;-57
2023/12/25 13:52:39;;;;;;;;;;;24.20;35.40;;;;;;5075756;28;20457;-57
2023/12/25 13:55:07;;;;;;;;;;;24.20;35.40;;;;;;5075495;28;19932;-57
2023/12/25 13:57:34;;;;;;;;;;;24.20;36.00;;;;;;5075175;28;19925;-57
2023/12/25 14:00:03;;;;;;;;;;;24.10;35.50;;;;;;5075282;28;20339;-57
2023/12/25 14:02:30;;;;;;;;;;;24.10;35.50;;;;;;5075398;28;20023;-57
2023/12/25 14:04:57;;;;;;;;;;;24.10;35.50;;;;;;5075426;28;20278;-57
2023/12/25 14:07:24;;;;;;;;;;;24.10;35.50;;;;;;5075516;28;19948;-57
2023/12/25 14:09:51;;;;;;;;;;;24.10;35.50;;;;;;5073996;28;19932;-58
2023/12/25 14:12:18;;;;;;;;;;;24.10;35.50;;;;;;5074990;28;19938;-57
2023/12/25 14:14:45;;;;;;;;;;;24.00;35.50;;;;;;5075188;28;20365;-57
2023/12/25 14:17:13;;;;;;;;;;;24.10;35.60;;;;;;5074270;28;19925;-57